AAL578 TNCM-KMIA
Flight info
| Callsign | AAL578 |
|---|---|
| Flight time | N/A |
| Altitude | 38000 |
| Route | MODOR2 JUICE B520 STT RTE6 SJU DCT ACONY Y308 MADIZ VIICE2 |
| Aircraft | B77W/H-SDE1E2E3FGHIJ2J3J4J5M1RWXY/LB1D1 |
Departure
| Time | 2026-05-08 05:27 |
|---|---|
| Airport | Princess Juliana International Airport (TNCM) |
Arrival
| Time | N/A |
|---|---|
| Airport | Miami International Airport (KMIA) |
| Time | Latitude | Longitude | Altitude | Speed | Heading |
|---|---|---|---|---|---|
| 2026-05-08 05:07 | 18.04308 | -63.11429 | 25 ft | 0 kts | 352° |
| 2026-05-08 05:14 | 18.04308 | -63.11428 | 53 ft | 0 kts | 352° |
| 2026-05-08 05:14 | 18.04307 | -63.11428 | 53 ft | 0 kts | 352° |
| 2026-05-08 05:17 | 18.04299 | -63.11427 | 29 ft | 3 kts | 352° |
| 2026-05-08 05:17 | 18.04283 | -63.11425 | 31 ft | 3 kts | 352° |
| 2026-05-08 05:17 | 18.04264 | -63.11420 | 30 ft | 3 kts | 324° |
| 2026-05-08 05:18 | 18.04251 | -63.11405 | 31 ft | 3 kts | 287° |
| 2026-05-08 05:18 | 18.04248 | -63.11393 | 31 ft | 0 kts | 266° |
| 2026-05-08 05:21 | 18.04247 | -63.11396 | 31 ft | 4 kts | 256° |
| 2026-05-08 05:22 | 18.04225 | -63.11459 | 27 ft | 16 kts | 244° |
| 2026-05-08 05:22 | 18.04161 | -63.11553 | 30 ft | 16 kts | 231° |
| 2026-05-08 05:22 | 18.04095 | -63.11640 | 29 ft | 16 kts | 234° |
| 2026-05-08 05:22 | 18.04055 | -63.11748 | 29 ft | 16 kts | 261° |
| 2026-05-08 05:23 | 18.04044 | -63.11832 | 28 ft | 0 kts | 261° |
| 2026-05-08 05:24 | 18.04038 | -63.11863 | 30 ft | 7 kts | 257° |
| 2026-05-08 05:24 | 18.04021 | -63.11912 | 29 ft | 7 kts | 244° |
| 2026-05-08 05:24 | 18.03990 | -63.11949 | 31 ft | 7 kts | 213° |
| 2026-05-08 05:25 | 18.03952 | -63.11928 | 27 ft | 8 kts | 112° |
| 2026-05-08 05:25 | 18.03955 | -63.11869 | 27 ft | 8 kts | 86° |
| 2026-05-08 05:25 | 18.03959 | -63.11829 | 26 ft | 0 kts | 82° |
| 2026-05-08 05:26 | 18.03962 | -63.11808 | 26 ft | 22 kts | 81° |
| 2026-05-08 05:26 | 18.04031 | -63.11334 | 28 ft | 105 kts | 81° |
| 2026-05-08 05:26 | 18.04122 | -63.10708 | 26 ft | 154 kts | 81° |
| 2026-05-08 05:27 | 18.04284 | -63.09574 | 338 ft | 178 kts | 86° |
| 2026-05-08 05:27 | 18.04071 | -63.08232 | 869 ft | 208 kts | 111° |
| 2026-05-08 05:27 | 18.03306 | -63.07038 | 872 ft | 229 kts | 134° |
| 2026-05-08 05:27 | 18.01973 | -63.06188 | 1416 ft | 228 kts | 159° |
| 2026-05-08 05:28 | 18.00496 | -63.06024 | 2330 ft | 234 kts | 187° |
| 2026-05-08 05:28 | 17.99004 | -63.06791 | 2935 ft | 245 kts | 225° |
| 2026-05-08 05:28 | 17.98097 | -63.08307 | 3313 ft | 247 kts | 244° |
| 2026-05-08 05:28 | 17.97347 | -63.09963 | 3551 ft | 259 kts | 243° |
| 2026-05-08 05:29 | 17.96511 | -63.11709 | 3955 ft | 266 kts | 242° |
| 2026-05-08 05:29 | 17.95628 | -63.13460 | 4315 ft | 278 kts | 241° |
| 2026-05-08 05:29 | 17.94663 | -63.15293 | 4557 ft | 293 kts | 240° |
| 2026-05-08 05:29 | 17.93771 | -63.16936 | 4973 ft | 299 kts | 239° |
| 2026-05-08 05:30 | 17.92752 | -63.18776 | 5501 ft | 304 kts | 239° |
| 2026-05-08 05:30 | 17.91808 | -63.20467 | 5951 ft | 309 kts | 239° |
| 2026-05-08 05:30 | 17.90811 | -63.22250 | 6500 ft | 311 kts | 239° |
| 2026-05-08 05:30 | 17.89941 | -63.24121 | 6924 ft | 310 kts | 258° |
| 2026-05-08 05:31 | 17.89892 | -63.26340 | 7322 ft | 309 kts | 288° |
| 2026-05-08 05:31 | 17.90809 | -63.28347 | 7858 ft | 304 kts | 311° |
| 2026-05-08 05:31 | 17.92301 | -63.29871 | 8381 ft | 302 kts | 329° |
| 2026-05-08 05:31 | 17.94146 | -63.30849 | 8806 ft | 300 kts | 336° |
| 2026-05-08 05:32 | 17.95798 | -63.32167 | 9083 ft | 311 kts | 306° |
| 2026-05-08 05:32 | 17.96831 | -63.34177 | 9518 ft | 314 kts | 297° |
| 2026-05-08 05:32 | 17.97778 | -63.36261 | 10053 ft | 316 kts | 298° |
| 2026-05-08 05:32 | 17.98715 | -63.38230 | 10411 ft | 324 kts | 299° |
| 2026-05-08 05:33 | 17.99820 | -63.40485 | 10506 ft | 343 kts | 300° |
| 2026-05-08 05:33 | 18.00943 | -63.42739 | 10650 ft | 360 kts | 300° |
| 2026-05-08 05:33 | 18.02075 | -63.44989 | 10847 ft | 373 kts | 300° |
| 2026-05-08 05:33 | 18.03309 | -63.47427 | 11248 ft | 381 kts | 300° |
| 2026-05-08 05:34 | 18.04501 | -63.49776 | 11757 ft | 384 kts | 300° |
| 2026-05-08 05:34 | 18.05724 | -63.52182 | 12348 ft | 386 kts | 300° |
| 2026-05-08 05:34 | 18.06993 | -63.54677 | 12995 ft | 387 kts | 300° |
| 2026-05-08 05:34 | 18.08236 | -63.57122 | 13591 ft | 388 kts | 300° |
| 2026-05-08 05:35 | 18.09512 | -63.59633 | 14138 ft | 390 kts | 300° |
| 2026-05-08 05:35 | 18.10781 | -63.62129 | 14613 ft | 393 kts | 300° |
| 2026-05-08 05:35 | 18.12079 | -63.64684 | 15070 ft | 397 kts | 300° |
| 2026-05-08 05:35 | 18.13284 | -63.67306 | 15476 ft | 401 kts | 291° |
| 2026-05-08 05:36 | 18.13906 | -63.70175 | 15812 ft | 409 kts | 281° |
| 2026-05-08 05:36 | 18.14336 | -63.73154 | 16282 ft | 412 kts | 281° |
| 2026-05-08 05:36 | 18.14771 | -63.76137 | 16763 ft | 414 kts | 281° |
| 2026-05-08 05:36 | 18.15229 | -63.79134 | 17239 ft | 417 kts | 282° |
| 2026-05-08 05:37 | 18.15706 | -63.82121 | 17690 ft | 420 kts | 282° |
| 2026-05-08 05:37 | 18.16205 | -63.85164 | 18130 ft | 423 kts | 282° |
| 2026-05-08 05:37 | 18.16719 | -63.88245 | 18529 ft | 426 kts | 282° |
| 2026-05-08 05:37 | 18.17222 | -63.91245 | 18901 ft | 429 kts | 282° |
| 2026-05-08 05:38 | 18.17733 | -63.94296 | 19265 ft | 432 kts | 282° |
| 2026-05-08 05:38 | 18.18203 | -63.97106 | 19590 ft | 435 kts | 282° |
| 2026-05-08 05:38 | 18.18720 | -64.00202 | 19950 ft | 438 kts | 282° |
| 2026-05-08 05:38 | 18.19248 | -64.03365 | 20302 ft | 442 kts | 282° |
| 2026-05-08 05:39 | 18.19778 | -64.06548 | 20659 ft | 445 kts | 282° |
| 2026-05-08 05:39 | 18.20122 | -64.08616 | 20900 ft | 446 kts | 282° |
| 2026-05-08 05:39 | 18.20658 | -64.11840 | 21261 ft | 449 kts | 282° |
| 2026-05-08 05:39 | 18.21201 | -64.15088 | 21613 ft | 452 kts | 282° |
| 2026-05-08 05:40 | 18.21749 | -64.18354 | 21945 ft | 455 kts | 282° |
| 2026-05-08 05:40 | 18.22292 | -64.21591 | 22285 ft | 458 kts | 282° |
| 2026-05-08 05:40 | 18.22854 | -64.24945 | 22632 ft | 461 kts | 282° |
| 2026-05-08 05:40 | 18.23405 | -64.28242 | 22966 ft | 464 kts | 282° |
| 2026-05-08 05:41 | 18.23951 | -64.31515 | 23279 ft | 467 kts | 282° |
| 2026-05-08 05:41 | 18.24509 | -64.34861 | 23592 ft | 470 kts | 282° |
| 2026-05-08 05:41 | 18.25071 | -64.38239 | 23860 ft | 473 kts | 282° |
| 2026-05-08 05:41 | 18.25626 | -64.41578 | 24145 ft | 474 kts | 282° |
| 2026-05-08 05:42 | 18.26182 | -64.44933 | 24435 ft | 476 kts | 282° |
| 2026-05-08 05:42 | 18.26752 | -64.48366 | 24703 ft | 478 kts | 282° |
| 2026-05-08 05:42 | 18.27318 | -64.51786 | 24957 ft | 481 kts | 282° |
| 2026-05-08 05:42 | 18.27896 | -64.55279 | 25231 ft | 483 kts | 283° |
| 2026-05-08 05:43 | 18.28461 | -64.58694 | 25481 ft | 485 kts | 283° |
| 2026-05-08 05:43 | 18.29032 | -64.62154 | 25734 ft | 487 kts | 283° |
| 2026-05-08 05:43 | 18.29611 | -64.65663 | 26003 ft | 489 kts | 283° |
| 2026-05-08 05:43 | 18.30193 | -64.69210 | 26269 ft | 492 kts | 283° |
| 2026-05-08 05:44 | 18.30768 | -64.72728 | 26524 ft | 494 kts | 283° |
| 2026-05-08 05:44 | 18.31320 | -64.76115 | 26764 ft | 496 kts | 283° |
| 2026-05-08 05:44 | 18.31904 | -64.79707 | 27013 ft | 498 kts | 283° |
| 2026-05-08 05:44 | 18.32481 | -64.83250 | 27260 ft | 500 kts | 283° |
| 2026-05-08 05:45 | 18.32957 | -64.86184 | 27445 ft | 502 kts | 283° |
| 2026-05-08 05:45 | 18.33459 | -64.89279 | 27688 ft | 503 kts | 283° |
| 2026-05-08 05:45 | 18.34051 | -64.92922 | 27935 ft | 505 kts | 284° |
| 2026-05-08 05:45 | 18.34640 | -64.96575 | 28134 ft | 508 kts | 282° |
| 2026-05-08 05:46 | 18.34959 | -65.00047 | 28288 ft | 515 kts | 274° |
| 2026-05-08 05:46 | 18.34814 | -65.03628 | 28413 ft | 521 kts | 266° |
| 2026-05-08 05:46 | 18.34201 | -65.07494 | 28594 ft | 527 kts | 258° |
| 2026-05-08 05:46 | 18.33116 | -65.11152 | 28795 ft | 531 kts | 252° |
| 2026-05-08 05:47 | 18.31867 | -65.14854 | 29020 ft | 532 kts | 254° |
| 2026-05-08 05:47 | 18.30842 | -65.18187 | 29162 ft | 533 kts | 258° |
| 2026-05-08 05:47 | 18.30147 | -65.22012 | 29283 ft | 530 kts | 268° |
| 2026-05-08 05:47 | 18.30016 | -65.25795 | 29494 ft | 525 kts | 276° |
| 2026-05-08 05:48 | 18.30315 | -65.29616 | 29774 ft | 520 kts | 284° |
| 2026-05-08 05:48 | 18.31063 | -65.33322 | 29993 ft | 517 kts | 288° |
| 2026-05-08 05:48 | 18.31889 | -65.37018 | 30158 ft | 519 kts | 288° |
| 2026-05-08 05:48 | 18.32708 | -65.40739 | 30273 ft | 522 kts | 287° |
| 2026-05-08 05:49 | 18.33495 | -65.44429 | 30400 ft | 523 kts | 287° |
| 2026-05-08 05:49 | 18.34254 | -65.48084 | 30551 ft | 524 kts | 287° |
| 2026-05-08 05:49 | 18.35014 | -65.51800 | 30722 ft | 525 kts | 287° |
| 2026-05-08 05:49 | 18.35777 | -65.55547 | 30863 ft | 525 kts | 287° |
| 2026-05-08 05:50 | 18.36546 | -65.59312 | 30968 ft | 527 kts | 287° |
| 2026-05-08 05:50 | 18.38090 | -65.66858 | 31077 ft | 530 kts | 287° |
| 2026-05-08 05:51 | 18.39627 | -65.74421 | 31114 ft | 531 kts | 287° |
| 2026-05-08 05:51 | 18.41178 | -65.82071 | 31084 ft | 533 kts | 287° |
| 2026-05-08 05:52 | 18.42712 | -65.89650 | 31085 ft | 532 kts | 287° |
| 2026-05-08 05:52 | 18.44731 | -65.97008 | 31073 ft | 520 kts | 301° |
| 2026-05-08 05:53 | 18.48493 | -66.03074 | 31083 ft | 506 kts | 317° |
| 2026-05-08 05:53 | 18.53500 | -66.08121 | 31068 ft | 500 kts | 322° |
| 2026-05-08 05:54 | 18.58524 | -66.13073 | 31068 ft | 502 kts | 321° |
| 2026-05-08 05:54 | 18.63596 | -66.18170 | 31062 ft | 504 kts | 321° |
| 2026-05-08 05:55 | 18.68678 | -66.23318 | 31061 ft | 505 kts | 321° |
| 2026-05-08 05:55 | 18.73712 | -66.28423 | 31048 ft | 505 kts | 320° |
| 2026-05-08 05:56 | 18.78788 | -66.33571 | 31059 ft | 506 kts | 320° |
| 2026-05-08 05:56 | 18.83743 | -66.38598 | 31057 ft | 506 kts | 320° |
| 2026-05-08 05:57 | 18.88810 | -66.43743 | 31053 ft | 506 kts | 320° |
| 2026-05-08 05:57 | 18.93582 | -66.49008 | 31051 ft | 509 kts | 312° |
| 2026-05-08 05:58 | 18.97643 | -66.55133 | 31056 ft | 512 kts | 308° |
| 2026-05-08 05:58 | 19.01612 | -66.61370 | 31042 ft | 511 kts | 308° |
| 2026-05-08 05:59 | 19.05571 | -66.67535 | 31058 ft | 511 kts | 308° |
| 2026-05-08 05:59 | 19.09589 | -66.73748 | 31056 ft | 511 kts | 308° |
| 2026-05-08 06:00 | 19.13580 | -66.79911 | 31054 ft | 511 kts | 308° |
| 2026-05-08 06:00 | 19.17580 | -66.86098 | 31058 ft | 510 kts | 308° |
| 2026-05-08 06:01 | 19.21576 | -66.92286 | 31055 ft | 510 kts | 308° |
| 2026-05-08 06:01 | 19.25591 | -66.98513 | 31054 ft | 510 kts | 308° |
| 2026-05-08 06:02 | 19.29575 | -67.04698 | 31058 ft | 510 kts | 308° |
| 2026-05-08 06:02 | 19.33574 | -67.10912 | 31057 ft | 509 kts | 308° |
| 2026-05-08 06:03 | 19.37537 | -67.17078 | 31061 ft | 508 kts | 308° |
| 2026-05-08 06:03 | 19.41524 | -67.23285 | 31048 ft | 508 kts | 307° |
| 2026-05-08 06:04 | 19.45491 | -67.29468 | 31059 ft | 507 kts | 307° |
| 2026-05-08 06:04 | 19.49442 | -67.35632 | 31057 ft | 507 kts | 307° |
| 2026-05-08 06:05 | 19.53405 | -67.41822 | 31055 ft | 506 kts | 307° |
| 2026-05-08 06:05 | 19.57339 | -67.47972 | 31058 ft | 506 kts | 307° |
| 2026-05-08 06:06 | 19.61117 | -67.53884 | 31059 ft | 506 kts | 307° |
| 2026-05-08 06:06 | 19.64416 | -67.59051 | 31055 ft | 506 kts | 307° |
| 2026-05-08 06:07 | 19.68346 | -67.65213 | 31059 ft | 506 kts | 307° |
| 2026-05-08 06:07 | 19.72251 | -67.71341 | 31057 ft | 505 kts | 307° |
| 2026-05-08 06:08 | 19.76177 | -67.77510 | 31055 ft | 505 kts | 307° |
| 2026-05-08 06:08 | 19.80089 | -67.83662 | 31061 ft | 505 kts | 307° |
| 2026-05-08 06:09 | 19.84020 | -67.89851 | 31061 ft | 505 kts | 307° |
| 2026-05-08 06:09 | 19.87927 | -67.96008 | 31057 ft | 505 kts | 307° |
| 2026-05-08 06:10 | 19.91831 | -68.02167 | 31058 ft | 504 kts | 307° |
| 2026-05-08 06:10 | 19.95732 | -68.08329 | 31057 ft | 504 kts | 307° |
| 2026-05-08 06:11 | 19.99626 | -68.14485 | 31063 ft | 504 kts | 306° |
| 2026-05-08 06:11 | 20.03553 | -68.20699 | 31051 ft | 505 kts | 306° |
| 2026-05-08 06:12 | 20.07455 | -68.26880 | 31055 ft | 504 kts | 306° |
| 2026-05-08 06:12 | 20.11356 | -68.33068 | 31061 ft | 504 kts | 306° |
| 2026-05-08 06:13 | 20.15241 | -68.39236 | 31056 ft | 504 kts | 306° |
| 2026-05-08 06:13 | 20.19152 | -68.45452 | 31058 ft | 504 kts | 306° |
| 2026-05-08 06:14 | 20.23060 | -68.51671 | 31062 ft | 504 kts | 306° |
| 2026-05-08 06:14 | 20.26837 | -68.57900 | 31054 ft | 505 kts | 303° |
| 2026-05-08 06:15 | 20.30376 | -68.64386 | 31047 ft | 505 kts | 302° |
| 2026-05-08 06:15 | 20.33852 | -68.70858 | 31069 ft | 505 kts | 302° |
| 2026-05-08 06:16 | 20.37374 | -68.77372 | 31059 ft | 505 kts | 302° |
| 2026-05-08 06:16 | 20.40876 | -68.83820 | 31049 ft | 505 kts | 302° |
| 2026-05-08 06:17 | 20.46146 | -68.93522 | 31060 ft | 505 kts | 302° |
| 2026-05-08 06:17 | 20.49646 | -68.99981 | 31064 ft | 504 kts | 301° |
| 2026-05-08 06:18 | 20.53151 | -69.06454 | 31061 ft | 503 kts | 301° |
| 2026-05-08 06:18 | 20.56641 | -69.12910 | 31044 ft | 502 kts | 301° |
| 2026-05-08 06:19 | 20.60128 | -69.19368 | 31048 ft | 502 kts | 301° |
| 2026-05-08 06:19 | 20.63596 | -69.25795 | 31059 ft | 500 kts | 301° |
| 2026-05-08 06:20 | 20.67058 | -69.32220 | 31053 ft | 499 kts | 301° |
| 2026-05-08 06:20 | 20.70503 | -69.38621 | 31055 ft | 498 kts | 301° |
| 2026-05-08 06:21 | 20.73961 | -69.45053 | 31056 ft | 497 kts | 301° |
| 2026-05-08 06:21 | 20.77407 | -69.51471 | 31055 ft | 497 kts | 301° |
| 2026-05-08 06:22 | 20.80833 | -69.57858 | 31054 ft | 496 kts | 301° |
| 2026-05-08 06:22 | 20.84275 | -69.64283 | 31054 ft | 496 kts | 301° |
| 2026-05-08 06:23 | 20.87681 | -69.70650 | 31056 ft | 496 kts | 301° |
| 2026-05-08 06:23 | 20.91084 | -69.77014 | 31059 ft | 495 kts | 301° |
| 2026-05-08 06:24 | 20.94518 | -69.83433 | 31050 ft | 494 kts | 301° |
| 2026-05-08 06:24 | 20.97932 | -69.89818 | 31045 ft | 493 kts | 301° |
| 2026-05-08 06:25 | 21.01315 | -69.96155 | 31051 ft | 492 kts | 301° |
| 2026-05-08 06:25 | 21.04689 | -70.02483 | 31048 ft | 492 kts | 300° |
| 2026-05-08 06:26 | 21.08086 | -70.08865 | 31049 ft | 491 kts | 300° |
| 2026-05-08 06:26 | 21.11456 | -70.15201 | 31047 ft | 491 kts | 300° |
| 2026-05-08 06:27 | 21.14823 | -70.21539 | 31046 ft | 491 kts | 301° |
| 2026-05-08 06:27 | 21.18206 | -70.27915 | 31050 ft | 491 kts | 301° |
| 2026-05-08 06:28 | 21.21587 | -70.34294 | 31044 ft | 491 kts | 301° |
| 2026-05-08 06:28 | 21.24941 | -70.40628 | 31045 ft | 491 kts | 301° |
| 2026-05-08 06:29 | 21.28321 | -70.47021 | 31044 ft | 491 kts | 301° |
| 2026-05-08 06:29 | 21.31665 | -70.53352 | 31049 ft | 490 kts | 301° |
| 2026-05-08 06:30 | 21.35017 | -70.59708 | 31045 ft | 489 kts | 301° |
| 2026-05-08 06:30 | 21.38336 | -70.66007 | 31048 ft | 488 kts | 301° |
| 2026-05-08 06:31 | 21.41666 | -70.72333 | 31046 ft | 487 kts | 301° |
| 2026-05-08 06:31 | 21.44943 | -70.78568 | 31050 ft | 487 kts | 301° |
| 2026-05-08 06:32 | 21.48255 | -70.84876 | 31050 ft | 487 kts | 301° |
| 2026-05-08 06:32 | 21.51583 | -70.91222 | 31043 ft | 487 kts | 301° |
| 2026-05-08 06:33 | 21.54894 | -70.97543 | 31048 ft | 487 kts | 301° |
| 2026-05-08 06:33 | 21.58188 | -71.03844 | 31047 ft | 488 kts | 301° |
| 2026-05-08 06:34 | 21.61388 | -71.10306 | 31051 ft | 489 kts | 300° |
| 2026-05-08 06:34 | 21.64457 | -71.16695 | 31047 ft | 489 kts | 300° |
| 2026-05-08 06:35 | 21.67576 | -71.23168 | 31046 ft | 489 kts | 300° |
| 2026-05-08 06:35 | 21.70731 | -71.29682 | 31048 ft | 489 kts | 300° |
| 2026-05-08 06:36 | 21.73880 | -71.36175 | 31048 ft | 489 kts | 300° |
| 2026-05-08 06:36 | 21.77006 | -71.42625 | 31049 ft | 488 kts | 300° |
| 2026-05-08 06:37 | 21.80144 | -71.49112 | 31050 ft | 488 kts | 300° |
| 2026-05-08 06:37 | 21.83267 | -71.55576 | 31049 ft | 488 kts | 300° |
| 2026-05-08 06:38 | 21.86372 | -71.62012 | 31042 ft | 488 kts | 299° |
| 2026-05-08 06:38 | 21.89485 | -71.68472 | 31051 ft | 488 kts | 299° |
| 2026-05-08 06:39 | 21.92612 | -71.74969 | 31046 ft | 489 kts | 299° |
| 2026-05-08 06:39 | 21.95719 | -71.81433 | 31048 ft | 489 kts | 299° |
| 2026-05-08 06:40 | 21.98847 | -71.87949 | 31049 ft | 489 kts | 299° |
| 2026-05-08 06:40 | 22.01962 | -71.94446 | 31041 ft | 489 kts | 299° |
| 2026-05-08 06:41 | 22.05058 | -72.00911 | 31051 ft | 489 kts | 299° |
| 2026-05-08 06:41 | 22.08164 | -72.07405 | 31049 ft | 489 kts | 299° |
| 2026-05-08 06:42 | 22.11288 | -72.13947 | 31051 ft | 489 kts | 299° |
| 2026-05-08 06:42 | 22.14381 | -72.20431 | 31044 ft | 488 kts | 299° |
| 2026-05-08 06:43 | 22.17492 | -72.26960 | 31039 ft | 487 kts | 299° |
| 2026-05-08 06:43 | 22.20569 | -72.33426 | 31041 ft | 487 kts | 298° |
| 2026-05-08 06:44 | 22.23655 | -72.39921 | 31044 ft | 486 kts | 298° |
| 2026-05-08 06:44 | 22.26742 | -72.46424 | 31046 ft | 486 kts | 298° |
| 2026-05-08 06:45 | 22.29802 | -72.52881 | 31041 ft | 486 kts | 298° |
| 2026-05-08 06:45 | 22.32886 | -72.59395 | 31044 ft | 486 kts | 298° |
| 2026-05-08 06:46 | 22.35944 | -72.65863 | 31043 ft | 486 kts | 298° |
| 2026-05-08 06:46 | 22.39027 | -72.72392 | 31041 ft | 486 kts | 298° |
| 2026-05-08 06:47 | 22.42066 | -72.78838 | 31042 ft | 486 kts | 298° |
| 2026-05-08 06:47 | 22.45106 | -72.85293 | 31041 ft | 486 kts | 298° |
| 2026-05-08 06:48 | 22.48175 | -72.91818 | 31041 ft | 486 kts | 298° |
| 2026-05-08 06:48 | 22.51225 | -72.98305 | 31042 ft | 485 kts | 298° |
| 2026-05-08 06:49 | 22.54280 | -73.04811 | 31039 ft | 485 kts | 298° |
| 2026-05-08 06:49 | 22.57307 | -73.11268 | 31040 ft | 484 kts | 298° |
| 2026-05-08 06:50 | 22.60320 | -73.17703 | 31038 ft | 483 kts | 298° |
| 2026-05-08 06:50 | 22.62844 | -73.23101 | 31038 ft | 483 kts | 298° |
| 2026-05-08 06:51 | 22.65827 | -73.29487 | 31039 ft | 482 kts | 298° |
| 2026-05-08 06:51 | 22.68666 | -73.35572 | 31037 ft | 482 kts | 298° |
| 2026-05-08 06:52 | 22.72190 | -73.43137 | 31040 ft | 483 kts | 298° |
| 2026-05-08 06:52 | 22.74712 | -73.48558 | 31039 ft | 483 kts | 298° |
| 2026-05-08 06:53 | 22.77743 | -73.55081 | 31040 ft | 484 kts | 298° |
| 2026-05-08 06:53 | 22.80741 | -73.61541 | 31039 ft | 484 kts | 298° |
| 2026-05-08 06:54 | 22.83767 | -73.68070 | 31032 ft | 484 kts | 297° |
| 2026-05-08 06:54 | 22.86797 | -73.74618 | 31038 ft | 485 kts | 297° |
| 2026-05-08 06:55 | 22.89804 | -73.81121 | 31033 ft | 485 kts | 297° |
| 2026-05-08 06:55 | 22.92796 | -73.87603 | 31038 ft | 484 kts | 297° |
| 2026-05-08 06:56 | 22.95796 | -73.94112 | 31031 ft | 484 kts | 297° |
| 2026-05-08 06:56 | 22.98802 | -74.00641 | 31030 ft | 483 kts | 297° |
| 2026-05-08 06:57 | 23.01807 | -74.07176 | 31032 ft | 482 kts | 297° |
| 2026-05-08 06:57 | 23.04718 | -74.13516 | 31033 ft | 482 kts | 297° |
| 2026-05-08 06:58 | 23.07710 | -74.20041 | 31034 ft | 482 kts | 297° |
| 2026-05-08 06:58 | 23.10697 | -74.26564 | 31033 ft | 482 kts | 297° |
| 2026-05-08 06:59 | 23.13685 | -74.33096 | 31033 ft | 482 kts | 297° |
| 2026-05-08 06:59 | 23.16637 | -74.39560 | 31033 ft | 482 kts | 297° |
| 2026-05-08 07:00 | 23.19631 | -74.46124 | 31036 ft | 482 kts | 297° |
| 2026-05-08 07:00 | 23.22583 | -74.52606 | 31036 ft | 482 kts | 297° |
| 2026-05-08 07:01 | 23.25570 | -74.59173 | 31031 ft | 483 kts | 297° |
| 2026-05-08 07:01 | 23.28527 | -74.65683 | 31031 ft | 483 kts | 297° |
| 2026-05-08 07:02 | 23.31508 | -74.72255 | 31037 ft | 483 kts | 297° |
| 2026-05-08 07:02 | 23.34460 | -74.78771 | 31031 ft | 482 kts | 297° |
| 2026-05-08 07:03 | 23.37430 | -74.85336 | 31031 ft | 482 kts | 297° |
| 2026-05-08 07:03 | 23.40174 | -74.91958 | 31024 ft | 482 kts | 290° |
| 2026-05-08 07:04 | 23.42259 | -74.98870 | 31026 ft | 481 kts | 289° |
| 2026-05-08 07:04 | 23.44336 | -75.05815 | 31035 ft | 481 kts | 289° |
| 2026-05-08 07:05 | 23.46429 | -75.12743 | 31031 ft | 481 kts | 289° |
| 2026-05-08 07:05 | 23.48533 | -75.19669 | 31030 ft | 481 kts | 289° |
| 2026-05-08 07:06 | 23.50624 | -75.26557 | 31031 ft | 481 kts | 289° |
| 2026-05-08 07:06 | 23.52725 | -75.33492 | 31031 ft | 482 kts | 289° |
| 2026-05-08 07:07 | 23.54825 | -75.40438 | 31032 ft | 482 kts | 289° |
| 2026-05-08 07:07 | 23.56912 | -75.47354 | 31028 ft | 482 kts | 289° |
| 2026-05-08 07:08 | 23.58996 | -75.54277 | 31032 ft | 482 kts | 289° |
| 2026-05-08 07:08 | 23.61069 | -75.61171 | 31030 ft | 482 kts | 289° |
| 2026-05-08 07:09 | 23.63155 | -75.68120 | 31030 ft | 481 kts | 289° |
| 2026-05-08 07:09 | 23.65234 | -75.75060 | 31031 ft | 481 kts | 289° |
| 2026-05-08 07:10 | 23.67312 | -75.82009 | 31029 ft | 481 kts | 289° |